Latest Weather Observations for South Channel Island

IDV60801

Issued at 3:52 pm EDT Tuesday 29 November 2022 (issued every 10 minutes, with the page automatically refreshed every 10 minutes)

About weather observations | Map of weather stations | Latest weather observations for VIC | Other Formats
Station Details ID: 086344 Name: SOUTH CHANNEL ISLAND Lat: -38.31 Lon: 144.80 Height: 9.0 m
Data from the previous 72 hours. | See also: Recent months at South Channel Island
Date/Time
EDT
Temp
°C
App
Temp
°C
Dew
Point
°C
Rel
Hum
%
Delta-T
°C
Wind Press
QNH
hPa
Press
MSL
hPa
Rain since
9am
mm
Dir  Spd
km/h
Gust
km/h
Spd
kts
Gust
kts
29/03:30pm - - - - - SSW 20 30 11 16 - - -
29/03:00pm - - - - - SSW 26 33 14 18 - - -
29/02:30pm - - - - - SSW 26 32 14 17 - - -
29/02:00pm - - - - - SSW 26 32 14 17 - - -
29/01:30pm - - - - - SSW 24 33 13 18 - - -
29/01:00pm - - - - - SSW 26 35 14 19 - - -
29/12:30pm - - - - - SW 32 39 17 21 - - -
29/12:00pm - - - - - SW 32 37 17 20 - - -
29/11:30am - - - - - SW 32 41 17 22 - - -
29/11:00am - - - - - SW 33 41 18 22 - - -
29/10:30am - - - - - SW 32 39 17 21 - - -
29/10:00am - - - - - WSW 28 35 15 19 - - -
29/09:30am - - - - - W 26 33 14 18 - - -
29/09:00am - - - - - W 30 33 16 18 - - -
29/08:30am - - - - - WNW 28 30 15 16 - - -
29/08:00am - - - - - W 24 26 13 14 - - -
29/07:30am - - - - - WSW 24 30 13 16 - - -
29/07:00am - - - - - W 28 32 15 17 - - -
29/06:30am - - - - - W 30 35 16 19 - - -
29/06:00am - - - - - W 24 30 13 16 - - -
29/05:30am - - - - - WSW 33 41 18 22 - - -
29/05:00am - - - - - W 30 33 16 18 - - -
29/04:30am - - - - - W 32 35 17 19 - - -
29/04:00am - - - - - WSW 22 30 12 16 - - -
29/03:30am - - - - - WSW 32 35 17 19 - - -
29/03:00am - - - - - SW 39 54 21 29 - - -
29/02:38am - - - - - WSW 33 41 18 22 - - -
29/02:30am - - - - - W 37 41 20 22 - - -
29/02:00am - - - - - W 35 41 19 22 - - -
29/01:30am - - - - - W 37 43 20 23 - - -
29/01:00am - - - - - W 39 43 21 23 - - -
29/12:30am - - - - - WNW 41 48 22 26 - - -
29/12:00am - - - - - WNW 39 46 21 25 - - -
 
Date/Time
EDT
Temp
°C
App
Temp
°C
Dew
Point
°C
Rel
Hum
%
Delta-T
°C
Wind Press
QNH
hPa
Press
MSL
hPa
Rain since
9am
mm
Dir  Spd
km/h
Gust
km/h
Spd
kts
Gust
kts
28/11:30pm - - - - - W 41 52 22 28 - - -
28/11:00pm - - - - - W 41 48 22 26 - - -
28/10:30pm - - - - - W 41 48 22 26 - - -
28/10:00pm - - - - - W 44 54 24 29 - - -
28/09:30pm - - - - - W 37 43 20 23 - - -
28/09:00pm - - - - - W 37 41 20 22 - - -
28/08:30pm - - - - - W 26 35 14 19 - - -
28/08:00pm - - - - - W 28 35 15 19 - - -
28/07:30pm - - - - - W 30 35 16 19 - - -
28/07:00pm - - - - - W 37 46 20 25 - - -
28/06:30pm - - - - - W 33 46 18 25 - - -
28/06:00pm - - - - - W 35 48 19 26 - - -
28/05:30pm - - - - - W 30 37 16 20 - - -
28/05:00pm - - - - - WNW 33 37 18 20 - - -
28/04:30pm - - - - - W 35 44 19 24 - - -
28/04:00pm - - - - - W 35 48 19 26 - - -
28/03:44pm - - - - - WNW 26 44 14 24 - - -
28/03:30pm - - - - - WNW 17 20 9 11 - - -
28/03:00pm - - - - - WNW 20 30 11 16 - - -
28/02:30pm - - - - - SW 17 22 9 12 - - -
28/02:00pm - - - - - WSW 26 32 14 17 - - -
28/01:30pm - - - - - W 28 32 15 17 - - -
28/01:00pm - - - - - W 30 35 16 19 - - -
28/12:30pm - - - - - W 37 43 20 23 - - -
28/12:00pm - - - - - W 33 41 18 22 - - -
28/11:30am - - - - - W 28 32 15 17 - - -
28/11:00am - - - - - W 24 30 13 16 - - -
28/10:30am - - - - - W 30 37 16 20 - - -
28/10:00am - - - - - W 26 32 14 17 - - -
28/09:30am - - - - - WNW 30 33 16 18 - - -
28/09:00am - - - - - WNW 26 32 14 17 - - -
28/08:30am - - - - - WNW 28 32 15 17 - - -
28/08:00am - - - - - W 28 33 15 18 - - -
28/07:30am - - - - - WNW 28 32 15 17 - - -
28/07:00am - - - - - WNW 32 33 17 18 - - -
28/06:30am - - - - - WNW 28 32 15 17 - - -
28/06:00am - - - - - W 30 33 16 18 - - -
28/05:30am - - - - - WNW 30 33 16 18 - - -
28/05:00am - - - - - WNW 28 32 15 17 - - -
28/04:30am - - - - - WNW 24 28 13 15 - - -
28/04:00am - - - - - WNW 28 32 15 17 - - -
28/03:30am - - - - - WNW 26 30 14 16 - - -
28/03:00am - - - - - W 28 32 15 17 - - -
28/02:30am - - - - - W 28 32 15 17 - - -
28/02:00am - - - - - WNW 28 32 15 17 - - -
28/01:30am - - - - - W 22 28 12 15 - - -
28/01:00am - - - - - WSW 24 32 13 17 - - -
28/12:30am - - - - - WSW 24 30 13 16 - - -
28/12:00am - - - - - WSW 28 35 15 19 - - -
 
Date/Time
EDT
Temp
°C
App
Temp
°C
Dew
Point
°C
Rel
Hum
%
Delta-T
°C
Wind Press
QNH
hPa
Press
MSL
hPa
Rain since
9am
mm
Dir  Spd
km/h
Gust
km/h
Spd
kts
Gust
kts
27/11:30pm - - - - - WSW 28 35 15 19 - - -
27/11:00pm - - - - - SW 32 35 17 19 - - -
27/10:30pm - - - - - SW 32 35 17 19 - - -
27/10:00pm - - - - - SW 35 41 19 22 - - -
27/09:30pm - - - - - SW 37 41 20 22 - - -
27/09:00pm - - - - - SW 37 46 20 25 - - -
27/08:30pm - - - - - SW 37 44 20 24 - - -
27/08:00pm - - - - - SSW 41 50 22 27 - - -
27/07:30pm - - - - - SW 41 52 22 28 - - -
27/07:00pm - - - - - SW 35 41 19 22 - - -
27/06:30pm - - - - - SSW 41 52 22 28 - - -
27/06:00pm - - - - - SW 39 48 21 26 - - -
27/05:30pm - - - - - SW 43 50 23 27 - - -
27/05:00pm - - - - - SW 41 52 22 28 - - -
27/04:30pm - - - - - SW 46 56 25 30 - - -
27/04:00pm - - - - - SW 39 46 21 25 - - -
27/03:30pm - - - - - SSW 32 39 17 21 - - -
27/03:08pm - - - - - S 20 33 11 18 - - -
27/03:00pm - - - - - ESE 13 15 7 8 - - -
27/02:30pm - - - - - WSW 7 9 4 5 - - -
27/02:00pm - - - - - SW 9 13 5 7 - - -
27/01:30pm - - - - - SSW 20 30 11 16 - - -
27/01:07pm - - - - - SW 32 56 17 30 - - -
27/01:00pm - - - - - SW 24 30 13 16 - - -
27/12:30pm - - - - - W 20 26 11 14 - - -
27/12:00pm - - - - - WSW 24 30 13 16 - - -
27/11:30am - - - - - WSW 33 41 18 22 - - -
27/11:00am - - - - - WSW 26 32 14 17 - - -
27/10:30am - - - - - W 28 33 15 18 - - -
27/10:00am - - - - - W 33 41 18 22 - - -
27/09:30am - - - - - W 28 32 15 17 - - -
27/09:00am - - - - - W 17 22 9 12 - - -
27/08:30am - - - - - W 26 30 14 16 - - -
27/08:00am - - - - - W 20 22 11 12 - - -
27/07:30am - - - - - WSW 24 28 13 15 - - -
27/07:00am - - - - - WSW 13 17 7 9 - - -
27/06:30am - - - - - SSW 17 20 9 11 - - -
27/06:00am - - - - - W 28 32 15 17 - - -
27/05:30am - - - - - WNW 28 32 15 17 - - -
27/05:00am - - - - - WNW 24 28 13 15 - - -
27/04:30am - - - - - WNW 17 20 9 11 - - -
27/04:00am - - - - - NW 19 22 10 12 - - -
27/03:30am - - - - - NW 17 19 9 10 - - -
27/03:00am - - - - - WNW 22 26 12 14 - - -
27/02:30am - - - - - W 24 30 13 16 - - -
27/02:00am - - - - - W 24 28 13 15 - - -
27/01:30am - - - - - SW 20 24 11 13 - - -
27/01:00am - - - - - SW 26 30 14 16 - - -
27/12:30am - - - - - SW 26 30 14 16 - - -
27/12:00am - - - - - W 22 26 12 14 - - -
 
Date/Time
EDT
Temp
°C
App
Temp
°C
Dew
Point
°C
Rel
Hum
%
Delta-T
°C
Wind Press
QNH
hPa
Press
MSL
hPa
Rain since
9am
mm
Dir  Spd
km/h
Gust
km/h
Spd
kts
Gust
kts
26/11:30pm - - - - - NW 22 28 12 15 - - -
26/11:00pm - - - - - NW 22 26 12 14 - - -
26/10:30pm - - - - - NW 17 19 9 10 - - -
26/10:00pm - - - - - NNW 26 28 14 15 - - -
26/09:30pm - - - - - N 24 28 13 15 - - -
26/09:00pm - - - - - N 26 32 14 17 - - -
26/08:30pm - - - - - NNW 33 39 18 21 - - -
26/08:00pm - - - - - NNW 37 48 20 26 - - -
26/07:48pm - - - - - NW 56 65 30 35 - - -
26/07:30pm - - - - - WNW 44 56 24 30 - - -
26/07:00pm - - - - - WNW 46 54 25 29 - - -
26/06:44pm - - - - - NNW 39 63 21 34 - - -
26/06:41pm - - - - - NNW 35 44 19 24 - - -
26/06:30pm - - - - - N 39 46 21 25 - - -
26/06:00pm - - - - - N 43 48 23 26 - - -
26/05:30pm - - - - - N 37 46 20 25 - - -
26/05:00pm - - - - - N 43 48 23 26 - - -
26/04:30pm - - - - - N 32 33 17 18 - - -
26/04:00pm - - - - - N 30 37 16 20 - - -

Other formats

Comma delimited format used in spreadsheet applications
http://www.bom.gov.au/fwo/IDV60801/IDV60801.94853.axf

JavaScript Object Notation format (JSON) in row-major order
http://www.bom.gov.au/fwo/IDV60801/IDV60801.94853.json

Data quality

Most of these data are generated automatically and are frequently updated. Quality checks on data are not normally performed. It is possible for incorrect values to appear. Refer to information at About Latest Weather Observations and please check the disclaimer before using these data.